Archibald, Louisiana
Current Conditions -  °F | °C
As of 11:53 AM on Monday 24 Nov 2014 (Local Time) from KMLU Reporting Station
Clear Clear  
Wind Chill: 59°   Ceiling: Unl
Heat Index: 59°   Visibility: 10mi
Dew Point: 35°   Wind: 10mph
Humidity: 41%   Direction: 340°NNW
Pressure: 29.98"   Gusts: NA
Location:  32.35°N, 91.78°W
Report Text: KMLU 241753Z 34009KT 10SM CLR 15/02 A2998 RMK AO2 SLP153 T01500017 10150 20094 50010
Loading
Personal Weather Stations






























Interactive Weather Map New forecast layout! Learn more

10-Day Weather Forecast

Advertisements
Track Severe Weather on mobile